createdAt,value
2019-02-23T00:00:57.499Z,7.90
2019-02-23T00:03:26.258Z,7.80
2019-02-23T00:05:55.137Z,7.80
2019-02-23T00:08:24.207Z,7.80
2019-02-23T00:10:53.066Z,7.80
2019-02-23T00:13:22.022Z,7.70
2019-02-23T00:15:50.829Z,7.70
2019-02-23T00:18:19.706Z,7.70
2019-02-23T00:20:48.506Z,7.70
2019-02-23T00:23:17.311Z,7.70
2019-02-23T00:25:46.120Z,7.70
2019-02-23T00:28:15.145Z,7.70
2019-02-23T00:30:43.962Z,7.70
2019-02-23T00:33:12.774Z,7.70
2019-02-23T00:35:41.544Z,7.60
2019-02-23T00:38:10.618Z,7.60
2019-02-23T00:40:39.431Z,7.60
2019-02-23T00:43:08.191Z,7.60
2019-02-23T00:45:37.017Z,7.60
2019-02-23T00:48:06.082Z,7.60
2019-02-23T00:50:34.855Z,7.60
2019-02-23T00:53:04.138Z,7.70
2019-02-23T00:55:32.969Z,7.70
2019-02-23T00:58:01.774Z,7.70
2019-02-23T01:00:30.567Z,7.70
2019-02-23T01:02:59.402Z,7.60
2019-02-23T01:05:28.232Z,7.60
2019-02-23T01:07:57.060Z,7.60
2019-02-23T01:10:26.122Z,7.60
2019-02-23T01:12:54.926Z,7.70
2019-02-23T01:15:23.729Z,7.60
2019-02-23T01:17:52.605Z,7.60
2019-02-23T01:22:58.075Z,7.50
2019-02-23T01:25:26.955Z,7.50
2019-02-23T01:27:55.938Z,7.40
2019-02-23T01:30:24.855Z,7.40
2019-02-23T01:32:53.699Z,7.40
2019-02-23T01:35:22.563Z,7.40
2019-02-23T01:37:51.385Z,7.40
2019-02-23T01:40:20.241Z,7.40
2019-02-23T01:42:49.030Z,7.40
2019-02-23T01:45:18.061Z,7.40
2019-02-23T01:47:46.873Z,7.30
2019-02-23T01:50:15.892Z,7.30
2019-02-23T01:52:44.684Z,7.30
2019-02-23T01:55:13.658Z,7.20
2019-02-23T01:57:42.451Z,7.20
2019-02-23T02:00:13.620Z,7.20
2019-02-23T02:02:43.118Z,7.20
2019-02-23T02:05:12.419Z,7.20
2019-02-23T02:07:41.237Z,7.20
2019-02-23T02:10:11.255Z,7.20
2019-02-23T02:12:40.012Z,7.20
2019-02-23T02:15:11.379Z,7.20
2019-02-23T02:17:40.304Z,7.10
2019-02-23T02:20:11.460Z,7.10
2019-02-23T02:22:40.191Z,7.10
2019-02-23T02:25:09.472Z,7.00
2019-02-23T02:27:38.487Z,7.00
2019-02-23T02:30:10.335Z,7.00
2019-02-23T02:32:39.152Z,7.00
2019-02-23T02:35:09.765Z,7.00
2019-02-23T02:37:38.758Z,7.00
2019-02-23T02:40:08.827Z,7.00
2019-02-23T02:42:37.682Z,7.00
2019-02-23T02:45:08.227Z,6.90
2019-02-23T02:47:37.062Z,6.90
2019-02-23T02:50:07.058Z,6.80
2019-02-23T02:52:35.950Z,6.80
2019-02-23T02:55:05.532Z,6.80
2019-02-23T02:57:34.363Z,6.80
2019-02-23T03:00:03.415Z,6.70
2019-02-23T03:02:32.271Z,6.70
2019-02-23T03:05:01.117Z,6.70
2019-02-23T03:07:29.917Z,6.70
2019-02-23T03:09:58.901Z,6.70
2019-02-23T03:12:27.721Z,6.70
2019-02-23T03:14:56.498Z,6.70
2019-02-23T03:17:25.344Z,6.60
2019-02-23T03:19:54.254Z,6.70
2019-02-23T03:22:23.058Z,6.60
2019-02-23T03:24:51.877Z,6.60
2019-02-23T03:27:20.669Z,6.60
2019-02-23T03:29:49.750Z,6.60
2019-02-23T03:32:18.640Z,6.60
2019-02-23T03:34:47.448Z,6.60
2019-02-23T03:37:16.251Z,6.50
2019-02-23T03:39:45.168Z,6.40
2019-02-23T03:42:14.055Z,6.40
2019-02-23T03:44:43.106Z,6.40
2019-02-23T03:47:11.935Z,6.40
2019-02-23T03:49:40.968Z,6.40
2019-02-23T03:52:09.801Z,6.40
2019-02-23T03:54:38.613Z,6.40
2019-02-23T03:57:07.436Z,6.40
2019-02-23T03:59:36.516Z,6.40
2019-02-23T04:02:05.357Z,6.30
2019-02-23T04:04:34.177Z,6.30
2019-02-23T04:07:03.044Z,6.30
2019-02-23T04:09:32.961Z,6.30
2019-02-23T04:12:01.926Z,6.20
2019-02-23T04:14:30.784Z,6.10
2019-02-23T04:16:59.626Z,6.10
2019-02-23T04:19:29.479Z,6.10
2019-02-23T04:21:58.312Z,6.00
2019-02-23T04:24:27.166Z,6.00
2019-02-23T04:26:55.950Z,6.00
2019-02-23T04:29:24.759Z,6.10
2019-02-23T04:31:53.566Z,6.00
2019-02-23T04:34:22.414Z,6.00
2019-02-23T04:36:51.282Z,6.00
2019-02-23T04:39:20.169Z,6.00
2019-02-23T04:41:48.969Z,6.00
2019-02-23T04:44:17.795Z,6.00
2019-02-23T04:46:46.610Z,5.90
2019-02-23T04:49:15.518Z,5.80
2019-02-23T04:51:44.698Z,5.80
2019-02-23T04:54:13.460Z,5.80
2019-02-23T04:56:42.324Z,5.80
2019-02-23T04:59:11.298Z,5.70
2019-02-23T05:01:40.091Z,5.70
2019-02-23T05:04:08.975Z,5.70
2019-02-23T05:06:37.857Z,5.70
2019-02-23T05:09:07.208Z,5.70
2019-02-23T05:11:35.971Z,5.60
2019-02-23T05:14:04.877Z,5.60
2019-02-23T05:16:33.679Z,5.60
2019-02-23T05:19:02.629Z,5.60
2019-02-23T05:21:31.436Z,5.50
2019-02-23T05:24:00.224Z,5.50
2019-02-23T05:26:28.994Z,5.50
2019-02-23T05:28:57.992Z,5.50
2019-02-23T05:31:26.741Z,5.50
2019-02-23T05:33:55.588Z,5.60
2019-02-23T05:36:24.370Z,5.60
2019-02-23T05:38:53.358Z,5.60
2019-02-23T05:41:22.140Z,5.50
2019-02-23T05:43:51.029Z,5.50
2019-02-23T05:46:19.838Z,5.50
2019-02-23T05:48:48.698Z,5.50
2019-02-23T05:51:18.459Z,5.50
2019-02-23T05:53:47.355Z,5.40
2019-02-23T05:56:16.466Z,5.40
2019-02-23T05:58:45.501Z,5.40
2019-02-23T06:01:14.279Z,5.40
2019-02-23T06:03:43.068Z,5.40
2019-02-23T06:06:11.951Z,5.30
2019-02-23T06:08:40.827Z,5.30
2019-02-23T06:11:09.605Z,5.30
2019-02-23T06:13:38.397Z,5.30
2019-02-23T06:16:07.499Z,5.30
2019-02-23T06:18:36.514Z,5.20
2019-02-23T06:21:05.254Z,5.20
2019-02-23T06:23:34.083Z,5.20
2019-02-23T06:26:02.877Z,5.10
2019-02-23T06:28:32.008Z,5.10
2019-02-23T06:31:00.831Z,5.10
2019-02-23T06:33:29.619Z,5.10
2019-02-23T06:35:58.457Z,5.00
2019-02-23T06:38:31.403Z,5.00
2019-02-23T06:41:00.198Z,5.00
2019-02-23T06:43:29.008Z,5.00
2019-02-23T06:45:57.901Z,5.00
2019-02-23T06:48:26.889Z,4.90
2019-02-23T06:50:55.768Z,4.90
2019-02-23T06:53:24.652Z,5.00
2019-02-23T06:55:53.513Z,4.90
2019-02-23T06:58:22.506Z,5.00
2019-02-23T07:00:51.506Z,4.90
2019-02-23T07:03:20.313Z,4.90
2019-02-23T07:05:49.906Z,4.90
2019-02-23T07:08:18.973Z,4.90
2019-02-23T07:10:50.858Z,4.90
2019-02-23T07:13:19.756Z,4.90
2019-02-23T07:15:48.553Z,4.80
2019-02-23T07:18:17.607Z,4.90
2019-02-23T07:20:46.574Z,4.90
2019-02-23T07:23:15.382Z,4.90
2019-02-23T07:25:44.207Z,4.90
2019-02-23T07:28:13.089Z,5.00
2019-02-23T07:30:41.921Z,5.00
2019-02-23T07:33:10.773Z,5.00
2019-02-23T07:35:39.586Z,5.00
2019-02-23T07:38:08.660Z,5.00
2019-02-23T07:40:37.475Z,5.10
2019-02-23T07:43:06.260Z,5.10
2019-02-23T07:45:35.142Z,5.20
2019-02-23T07:48:04.274Z,5.20
2019-02-23T07:50:33.109Z,5.30
2019-02-23T07:53:01.918Z,5.30
2019-02-23T07:55:30.722Z,5.30
2019-02-23T07:57:59.509Z,5.40
2019-02-23T08:00:28.465Z,5.40
2019-02-23T08:02:57.272Z,5.40
2019-02-23T08:05:26.127Z,5.40
2019-02-23T08:07:54.931Z,5.40
2019-02-23T08:10:23.845Z,5.50
2019-02-23T08:12:52.638Z,5.50
2019-02-23T08:15:21.548Z,5.50
2019-02-23T08:17:50.339Z,5.50
2019-02-23T08:20:19.410Z,5.60
2019-02-23T08:22:48.191Z,5.60
2019-02-23T08:25:17.076Z,5.70
2019-02-23T08:27:45.911Z,5.70
2019-02-23T08:30:15.046Z,5.80
2019-02-23T08:32:43.866Z,5.90
2019-02-23T08:35:12.797Z,6.00
2019-02-23T08:37:41.550Z,6.10
2019-02-23T08:40:11.192Z,6.10
2019-02-23T08:42:40.024Z,6.20
2019-02-23T08:45:10.008Z,6.30
2019-02-23T08:47:38.936Z,6.30
2019-02-23T08:50:10.551Z,6.40
2019-02-23T08:52:48.614Z,6.40
2019-02-23T08:55:10.389Z,6.50
2019-02-23T08:57:39.321Z,6.50
2019-02-23T09:00:12.177Z,6.60
2019-02-23T09:02:41.137Z,6.70
2019-02-23T09:05:10.708Z,6.80
2019-02-23T09:07:39.529Z,6.80
2019-02-23T09:10:10.521Z,6.80
2019-02-23T09:12:39.489Z,6.80
2019-02-23T09:15:08.791Z,6.90
2019-02-23T09:17:37.582Z,6.90
2019-02-23T09:20:07.117Z,6.90
2019-02-23T09:22:35.974Z,7.00
2019-02-23T09:25:04.870Z,7.00
2019-02-23T09:27:33.663Z,7.10
2019-02-23T09:30:02.724Z,7.10
2019-02-23T09:32:31.538Z,7.10
2019-02-23T09:35:00.437Z,7.20
2019-02-23T09:37:29.264Z,7.20
2019-02-23T09:39:58.211Z,7.30
2019-02-23T09:42:26.951Z,7.30
2019-02-23T09:44:55.783Z,7.40
2019-02-23T09:47:24.761Z,7.40
2019-02-23T09:49:53.765Z,7.40
2019-02-23T09:52:22.592Z,7.50
2019-02-23T09:54:51.438Z,7.50
2019-02-23T09:57:20.239Z,7.50
2019-02-23T09:59:49.305Z,7.60
2019-02-23T10:02:18.090Z,7.70
2019-02-23T10:04:46.912Z,7.70
2019-02-23T10:07:15.690Z,7.80
2019-02-23T10:09:44.490Z,7.90
2019-02-23T10:12:13.281Z,7.90
2019-02-23T10:14:42.043Z,8.00
2019-02-23T10:17:10.956Z,8.10
2019-02-23T10:19:41.114Z,8.10
2019-02-23T10:22:09.889Z,8.20
2019-02-23T10:24:38.679Z,8.20
2019-02-23T10:27:07.419Z,8.30
2019-02-23T10:29:36.427Z,8.30
2019-02-23T10:32:05.210Z,8.30
2019-02-23T10:34:34.052Z,8.40
2019-02-23T10:37:02.965Z,8.40
2019-02-23T10:39:32.065Z,8.50
2019-02-23T10:42:00.960Z,8.50
2019-02-23T10:44:29.786Z,8.60
2019-02-23T10:46:58.549Z,8.60
2019-02-23T10:49:27.520Z,8.70
2019-02-23T10:51:56.393Z,8.70
2019-02-23T10:54:25.249Z,8.80
2019-02-23T10:56:54.096Z,8.80
2019-02-23T10:59:23.082Z,8.90
2019-02-23T11:01:51.901Z,9.00
2019-02-23T11:04:20.754Z,9.00
2019-02-23T11:06:49.597Z,9.10
2019-02-23T11:09:22.144Z,9.10
2019-02-23T11:11:50.943Z,9.20
2019-02-23T11:14:19.814Z,9.20
2019-02-23T11:16:48.845Z,9.20
2019-02-23T11:19:17.974Z,9.30
2019-02-23T11:21:47.118Z,9.30
2019-02-23T11:24:18.332Z,9.30
2019-02-23T11:26:46.718Z,9.40
2019-02-23T11:29:15.719Z,9.50
2019-02-23T11:31:44.697Z,9.50
2019-02-23T11:34:13.575Z,9.50
2019-02-23T11:36:42.467Z,9.60
2019-02-23T11:39:11.762Z,9.60
2019-02-23T11:41:40.579Z,9.70
2019-02-23T11:44:09.516Z,9.80
2019-02-23T11:46:38.350Z,9.80
2019-02-23T11:49:08.322Z,9.90
2019-02-23T11:51:37.356Z,10.00
2019-02-23T11:54:06.519Z,10.00
2019-02-23T11:56:35.349Z,10.10
2019-02-23T11:59:04.538Z,10.10
2019-02-23T12:01:33.338Z,10.20
2019-02-23T12:04:02.217Z,10.20
2019-02-23T12:06:31.016Z,10.30
2019-02-23T12:09:00.016Z,10.30
2019-02-23T12:11:28.796Z,10.40
2019-02-23T12:13:57.599Z,10.40
2019-02-23T12:16:26.409Z,10.40
2019-02-23T12:18:55.344Z,10.50
2019-02-23T12:21:24.230Z,10.50
2019-02-23T12:23:53.033Z,10.50
2019-02-23T12:26:21.924Z,10.60
2019-02-23T12:28:50.960Z,10.60
2019-02-23T12:31:19.825Z,10.60
2019-02-23T12:33:48.590Z,10.70
2019-02-23T12:36:17.407Z,10.70
2019-02-23T12:38:46.710Z,10.80
2019-02-23T12:41:15.472Z,10.80
2019-02-23T12:43:44.288Z,10.80
2019-02-23T12:46:13.137Z,10.90
2019-02-23T12:48:42.075Z,10.90
2019-02-23T12:51:10.917Z,11.00
2019-02-23T12:53:39.860Z,11.00
2019-02-23T12:56:08.701Z,11.00
2019-02-23T12:58:37.807Z,11.10
2019-02-23T13:01:06.603Z,11.10
2019-02-23T13:03:35.473Z,11.00
2019-02-23T13:06:04.359Z,11.10
2019-02-23T13:09:10.787Z,11.10
2019-02-23T13:11:39.654Z,11.10
2019-02-23T13:14:34.146Z,11.20
2019-02-23T13:17:42.683Z,11.30
2019-02-23T13:20:31.115Z,11.30
2019-02-23T13:23:36.728Z,11.30
2019-02-23T13:26:44.689Z,11.40
2019-02-23T13:29:35.087Z,11.40
2019-02-23T13:32:41.399Z,11.40
2019-02-23T13:35:32.777Z,11.50
2019-02-23T13:38:21.527Z,11.50
2019-02-23T13:41:17.353Z,11.50
2019-02-23T13:44:12.138Z,11.50
2019-02-23T13:47:02.648Z,11.50
2019-02-23T13:50:19.119Z,11.60
2019-02-23T13:53:20.093Z,11.60
2019-02-23T13:56:25.233Z,11.60
2019-02-23T13:59:50.540Z,11.70
2019-02-23T14:02:55.248Z,11.70
2019-02-23T14:05:53.040Z,11.70
2019-02-23T14:09:04.626Z,11.80
2019-02-23T14:12:09.518Z,11.80
2019-02-23T14:15:09.561Z,11.80
2019-02-23T14:17:46.550Z,11.90
2019-02-23T14:20:53.018Z,11.90
2019-02-23T14:24:19.488Z,11.90
2019-02-23T14:27:29.823Z,12.00
2019-02-23T14:30:38.333Z,12.10
2019-02-23T14:33:44.794Z,12.10
2019-02-23T14:36:49.247Z,12.20
2019-02-23T14:40:13.948Z,12.20
2019-02-23T14:43:36.317Z,12.20
2019-02-23T14:46:51.336Z,12.30
2019-02-23T14:49:42.671Z,12.30
2019-02-23T14:52:42.131Z,12.40
2019-02-23T14:56:07.599Z,12.40
2019-02-23T14:59:11.626Z,12.50
2019-02-23T15:02:03.137Z,12.50
2019-02-23T15:05:00.352Z,12.50
2019-02-23T15:08:22.606Z,12.60
2019-02-23T15:11:35.980Z,12.60
2019-02-23T15:14:26.147Z,12.70
2019-02-23T15:17:48.833Z,12.80
2019-02-23T15:21:17.087Z,12.90
2019-02-23T15:24:30.326Z,12.90
2019-02-23T15:27:28.158Z,12.90
2019-02-23T15:30:14.037Z,13.00
2019-02-23T15:33:20.284Z,12.90
2019-02-23T15:36:09.955Z,12.90
2019-02-23T15:39:07.703Z,12.80
2019-02-23T15:41:55.932Z,12.70
2019-02-23T15:44:51.411Z,12.60
2019-02-23T15:47:53.153Z,12.50
2019-02-23T15:50:22.085Z,12.40
2019-02-23T15:52:50.985Z,12.30
2019-02-23T15:55:26.093Z,12.30
2019-02-23T15:57:50.475Z,12.20
2019-02-23T16:00:19.575Z,12.20
2019-02-23T16:02:48.407Z,12.20
2019-02-23T16:05:17.398Z,12.20
2019-02-23T16:07:46.216Z,12.20
2019-02-23T16:10:17.819Z,12.20
2019-02-23T16:12:46.824Z,12.20
2019-02-23T16:15:15.711Z,12.20
2019-02-23T16:17:44.500Z,12.20
2019-02-23T16:20:13.606Z,12.20
2019-02-23T16:22:42.566Z,12.20
2019-02-23T16:25:11.530Z,12.10
2019-02-23T16:27:40.403Z,12.10
2019-02-23T16:30:09.663Z,12.10
2019-02-23T16:32:38.467Z,12.00
2019-02-23T16:35:07.369Z,11.90
2019-02-23T16:37:36.220Z,11.90
2019-02-23T16:40:05.358Z,11.80
2019-02-23T16:42:34.297Z,11.70
2019-02-23T16:45:03.223Z,11.70
2019-02-23T16:47:31.978Z,11.60
2019-02-23T16:50:01.036Z,11.60
2019-02-23T16:52:29.862Z,11.50
2019-02-23T16:54:58.687Z,11.40
2019-02-23T16:57:27.517Z,11.40
2019-02-23T16:59:56.850Z,11.30
2019-02-23T17:02:25.709Z,11.30
2019-02-23T17:04:54.598Z,11.20
2019-02-23T17:07:23.554Z,11.20
2019-02-23T17:09:52.950Z,11.10
2019-02-23T17:12:21.902Z,11.10
2019-02-23T17:14:50.752Z,11.00
2019-02-23T17:17:19.713Z,10.90
2019-02-23T17:19:48.711Z,10.90
2019-02-23T17:22:17.509Z,10.80
2019-02-23T17:24:46.412Z,10.70
2019-02-23T17:27:15.292Z,10.70
2019-02-23T17:29:44.464Z,10.60
2019-02-23T17:32:13.298Z,10.50
2019-02-23T17:34:42.186Z,10.50
2019-02-23T17:37:11.117Z,10.40
2019-02-23T17:39:40.467Z,10.40
2019-02-23T17:42:09.819Z,10.30
2019-02-23T17:44:40.354Z,10.20
2019-02-23T17:47:09.303Z,10.20
2019-02-23T17:49:38.291Z,10.10
2019-02-23T17:52:07.280Z,10.00
2019-02-23T17:54:36.551Z,10.00
2019-02-23T17:57:05.537Z,9.90
2019-02-23T17:59:35.566Z,9.90
2019-02-23T18:02:04.811Z,9.90
2019-02-23T18:04:33.710Z,9.80
2019-02-23T18:07:02.625Z,9.80
2019-02-23T18:09:31.740Z,9.80
2019-02-23T18:12:00.717Z,9.70
2019-02-23T18:14:30.063Z,9.70
2019-02-23T18:16:58.910Z,9.60
2019-02-23T18:19:27.943Z,9.60
2019-02-23T18:21:56.819Z,9.60
2019-02-23T18:24:25.688Z,9.50
2019-02-23T18:26:54.481Z,9.50
2019-02-23T18:29:23.585Z,9.50
2019-02-23T18:31:52.416Z,9.50
2019-02-23T18:34:21.243Z,9.40
2019-02-23T18:36:50.042Z,9.40
2019-02-23T18:39:19.241Z,9.40
2019-02-23T18:41:48.144Z,9.40
2019-02-23T18:44:17.055Z,9.30
2019-02-23T18:46:46.060Z,9.30
2019-02-23T18:49:16.150Z,9.30
2019-02-23T18:51:45.033Z,9.30
2019-02-23T18:54:13.925Z,9.20
2019-02-23T18:56:42.851Z,9.20
2019-02-23T18:59:11.727Z,9.20
2019-02-23T19:01:40.561Z,9.10
2019-02-23T19:04:09.449Z,9.10
2019-02-23T19:06:38.287Z,9.10
2019-02-23T19:09:07.489Z,9.00
2019-02-23T19:11:36.349Z,9.00
2019-02-23T19:14:05.124Z,9.00
2019-02-23T19:16:34.029Z,9.00
2019-02-23T19:19:03.021Z,9.00
2019-02-23T19:21:31.833Z,8.90
2019-02-23T19:24:00.628Z,8.90
2019-02-23T19:26:37.698Z,8.90
2019-02-23T19:29:00.217Z,8.90
2019-02-23T19:31:29.006Z,8.80
2019-02-23T19:33:57.804Z,8.80
2019-02-23T19:36:26.662Z,8.80
2019-02-23T19:38:55.581Z,8.80
2019-02-23T19:41:24.522Z,8.70
2019-02-23T19:43:53.277Z,8.70
2019-02-23T19:46:22.598Z,8.70
2019-02-23T19:48:51.564Z,8.70
2019-02-23T19:51:20.456Z,8.70
2019-02-23T19:53:49.672Z,8.70
2019-02-23T19:56:18.496Z,8.60
2019-02-23T19:58:47.587Z,8.60
2019-02-23T20:01:16.401Z,8.60
2019-02-23T20:03:45.179Z,8.50
2019-02-23T20:06:14.105Z,8.50
2019-02-23T20:08:43.198Z,8.50
2019-02-23T20:11:12.156Z,8.40
2019-02-23T20:13:40.966Z,8.30
2019-02-23T20:16:09.744Z,8.30
2019-02-23T20:18:38.648Z,8.20
2019-02-23T20:21:07.441Z,8.20
2019-02-23T20:23:36.318Z,8.10
2019-02-23T20:26:05.191Z,8.10
2019-02-23T20:28:34.174Z,8.00
2019-02-23T20:31:03.035Z,7.90
2019-02-23T20:33:31.849Z,7.70
2019-02-23T20:36:00.636Z,7.60
2019-02-23T20:38:29.543Z,7.50
2019-02-23T20:40:58.451Z,7.30
2019-02-23T20:43:27.268Z,7.20
2019-02-23T20:45:56.081Z,7.20
2019-02-23T20:48:25.109Z,7.10
2019-02-23T20:50:54.016Z,7.10
2019-02-23T20:53:22.798Z,7.00
2019-02-23T20:55:51.621Z,7.00
2019-02-23T20:58:20.643Z,7.00
2019-02-23T21:00:49.671Z,7.00
2019-02-23T21:03:18.540Z,7.10
2019-02-23T21:05:47.395Z,7.20
2019-02-23T21:08:16.647Z,7.20
2019-02-23T21:10:45.564Z,7.30
2019-02-23T21:13:14.376Z,7.40
2019-02-23T21:15:43.201Z,7.40
2019-02-23T21:18:12.202Z,7.50
2019-02-23T21:20:41.197Z,7.50
2019-02-23T21:23:09.987Z,7.50
2019-02-23T21:25:38.793Z,7.50
2019-02-23T21:28:07.692Z,7.60
2019-02-23T21:30:36.557Z,7.50
2019-02-23T21:33:05.630Z,7.50
2019-02-23T21:35:34.639Z,7.50
2019-02-23T21:38:03.548Z,7.50
2019-02-23T21:40:32.426Z,7.50
2019-02-23T21:43:01.305Z,7.50
2019-02-23T21:45:30.120Z,7.40
2019-02-23T21:47:59.155Z,7.40
2019-02-23T21:50:28.055Z,7.40
2019-02-23T21:52:56.850Z,7.40
2019-02-23T21:55:25.664Z,7.30
2019-02-23T21:57:54.432Z,7.30
2019-02-23T22:00:23.298Z,7.30
2019-02-23T22:02:52.149Z,7.30
2019-02-23T22:05:20.966Z,7.30
2019-02-23T22:07:49.765Z,7.30
2019-02-23T22:10:18.881Z,7.40
2019-02-23T22:12:47.664Z,7.40
2019-02-23T22:15:16.685Z,7.40
2019-02-23T22:17:45.541Z,7.40
2019-02-23T22:20:14.694Z,7.40
2019-02-23T22:22:43.684Z,7.40
2019-02-23T22:25:12.544Z,7.40
2019-02-23T22:27:41.479Z,7.40
2019-02-23T22:30:10.765Z,7.40
2019-02-23T22:32:41.696Z,7.40
2019-02-23T22:35:10.571Z,7.40
2019-02-23T22:37:39.455Z,7.30
2019-02-23T22:40:08.885Z,7.30
2019-02-23T22:42:37.849Z,7.30
2019-02-23T22:45:07.352Z,7.20
2019-02-23T22:47:38.347Z,7.20
2019-02-23T22:50:07.647Z,7.20
2019-02-23T22:52:36.397Z,7.10
2019-02-23T22:55:05.958Z,7.10
2019-02-23T22:57:40.557Z,7.10
2019-02-23T23:00:06.414Z,7.10
2019-02-23T23:02:35.353Z,7.10
2019-02-23T23:05:04.542Z,7.00
2019-02-23T23:07:33.318Z,7.00
2019-02-23T23:10:02.241Z,7.00
2019-02-23T23:12:31.075Z,7.00
2019-02-23T23:15:00.714Z,6.90
2019-02-23T23:17:30.490Z,6.90
2019-02-23T23:19:59.558Z,6.90
2019-02-23T23:22:28.383Z,6.90
2019-02-23T23:24:57.151Z,6.90
2019-02-23T23:27:25.943Z,6.90
2019-02-23T23:29:54.929Z,6.90
2019-02-23T23:32:24.087Z,6.90
2019-02-23T23:34:53.086Z,6.80
2019-02-23T23:37:22.765Z,6.80
2019-02-23T23:39:51.877Z,6.80
2019-02-23T23:42:20.802Z,6.70
2019-02-23T23:44:49.595Z,6.70
2019-02-23T23:47:19.387Z,6.60
2019-02-23T23:49:48.209Z,6.60
2019-02-23T23:52:17.025Z,6.50
2019-02-23T23:54:45.770Z,6.50
2019-02-23T23:57:14.615Z,6.40
2019-02-23T23:59:43.645Z,6.40
